createdAt,value
2019-03-13T00:00:37.821Z,7.50
2019-03-13T00:06:02.505Z,7.65
2019-03-13T00:11:27.429Z,7.74
2019-03-13T00:16:51.699Z,7.73
2019-03-13T00:22:16.089Z,7.64
2019-03-13T00:27:41.099Z,7.82
2019-03-13T00:33:04.774Z,7.82
2019-03-13T00:38:28.402Z,7.90
2019-03-13T00:43:52.915Z,8.02
2019-03-13T00:49:16.492Z,8.09
2019-03-13T00:54:40.948Z,8.07
2019-03-13T01:00:05.114Z,7.99
2019-03-13T01:05:43.364Z,8.02
2019-03-13T01:11:07.883Z,7.97
2019-03-13T01:16:31.499Z,7.97
2019-03-13T01:21:56.002Z,8.00
2019-03-13T01:27:19.853Z,8.00
2019-03-13T01:32:48.329Z,7.86
2019-03-13T01:38:11.872Z,7.83
2019-03-13T01:43:36.545Z,7.80
2019-03-13T01:49:00.339Z,7.81
2019-03-13T01:54:25.159Z,7.53
2019-03-13T01:59:49.516Z,7.45
2019-03-13T02:05:14.907Z,7.05
2019-03-13T02:10:40.021Z,6.84
2019-03-13T02:16:04.767Z,6.79
2019-03-13T02:21:29.149Z,6.71
2019-03-13T02:26:53.776Z,6.43
2019-03-13T02:32:18.156Z,6.20
2019-03-13T02:37:42.583Z,5.95
2019-03-13T02:43:07.315Z,5.63
2019-03-13T02:48:31.952Z,5.50
2019-03-13T02:53:55.773Z,5.47
2019-03-13T02:59:20.147Z,5.35
2019-03-13T03:04:44.052Z,5.26
2019-03-13T03:10:09.984Z,5.28
2019-03-13T03:15:33.361Z,5.26
2019-03-13T03:20:56.969Z,5.27
2019-03-13T03:26:21.690Z,5.36
2019-03-13T03:31:46.507Z,5.28
2019-03-13T03:37:10.288Z,5.35
2019-03-13T03:42:35.035Z,5.53
2019-03-13T03:47:59.551Z,5.92
2019-03-13T03:53:23.395Z,6.07
2019-03-13T03:58:47.282Z,5.91
2019-03-13T04:04:11.094Z,5.88
2019-03-13T04:09:34.992Z,5.64
2019-03-13T04:15:01.012Z,5.59
2019-03-13T04:20:27.041Z,5.68
2019-03-13T04:25:51.826Z,5.69
2019-03-13T04:31:16.326Z,5.70
2019-03-13T04:36:40.969Z,5.65
2019-03-13T04:42:04.745Z,5.55
2019-03-13T04:47:28.345Z,5.53
2019-03-13T04:52:52.881Z,5.47
2019-03-13T04:58:17.419Z,5.46
2019-03-13T05:03:42.068Z,5.44
2019-03-13T05:09:08.878Z,5.40
2019-03-13T05:14:32.995Z,5.32
2019-03-13T05:19:59.049Z,5.31
2019-03-13T05:25:23.052Z,5.21
2019-03-13T05:30:48.330Z,5.02
2019-03-13T05:36:16.351Z,4.75
2019-03-13T05:41:38.428Z,4.75
2019-03-13T05:47:03.040Z,4.70
2019-03-13T05:52:27.290Z,4.53
2019-03-13T05:57:51.270Z,4.42
2019-03-13T06:03:16.978Z,4.46
2019-03-13T06:08:40.890Z,4.30
2019-03-13T06:14:05.622Z,4.47
2019-03-13T06:19:29.531Z,4.92
2019-03-13T06:24:54.427Z,5.40
2019-03-13T06:30:18.798Z,5.69
2019-03-13T06:35:43.438Z,5.43
2019-03-13T06:41:08.455Z,5.29
2019-03-13T06:46:33.237Z,5.26
2019-03-13T06:51:56.913Z,5.20
2019-03-13T06:57:20.441Z,5.08
2019-03-13T07:02:56.938Z,5.05
2019-03-13T07:08:39.209Z,5.47
2019-03-13T07:14:20.693Z,5.48
2019-03-13T07:19:53.896Z,5.44
2019-03-13T07:25:34.110Z,6.28
2019-03-13T07:31:16.725Z,6.18
2019-03-13T07:37:17.688Z,5.81
2019-03-13T07:42:54.708Z,5.87
2019-03-13T07:48:33.203Z,5.90
2019-03-13T07:54:08.965Z,6.32
2019-03-13T07:59:59.201Z,6.95
2019-03-13T08:05:41.322Z,7.05
2019-03-13T08:11:22.646Z,6.98
2019-03-13T08:17:04.397Z,7.10
2019-03-13T08:23:00.139Z,7.26
2019-03-13T08:28:48.400Z,7.65
2019-03-13T08:34:33.212Z,8.17
2019-03-13T08:40:13.243Z,7.85
2019-03-13T08:46:11.314Z,7.79
2019-03-13T08:51:43.786Z,7.83
2019-03-13T08:57:26.199Z,7.91
2019-03-13T09:03:11.606Z,8.27
2019-03-13T09:09:10.567Z,8.14
2019-03-13T09:14:44.681Z,8.64
2019-03-13T09:20:28.677Z,8.27
2019-03-13T09:26:19.006Z,8.84
2019-03-13T09:32:02.114Z,8.64
2019-03-13T09:37:36.319Z,8.88
2019-03-13T09:43:14.984Z,9.93
2019-03-13T09:48:57.386Z,10.19
2019-03-13T09:54:35.907Z,9.34
2019-03-13T10:00:33.864Z,9.66
2019-03-13T10:06:06.264Z,8.81
2019-03-13T10:11:50.080Z,9.11
2019-03-13T10:17:25.348Z,9.11
2019-03-13T10:23:05.550Z,8.77
2019-03-13T10:28:36.291Z,8.63
2019-03-13T10:34:18.816Z,8.79
2019-03-13T10:39:49.888Z,9.55
2019-03-13T10:45:33.748Z,9.72
2019-03-13T10:51:16.642Z,10.32
2019-03-13T10:57:15.560Z,11.43
2019-03-13T11:02:52.353Z,10.32
2019-03-13T11:08:26.059Z,10.83
2019-03-13T11:13:57.574Z,10.89
2019-03-13T11:19:41.472Z,10.75
2019-03-13T11:25:21.046Z,10.49
2019-03-13T11:31:04.222Z,10.19
2019-03-13T11:36:35.362Z,10.14
2019-03-13T11:42:18.516Z,9.69
2019-03-13T11:47:59.867Z,9.94
2019-03-13T11:53:37.788Z,9.35
2019-03-13T11:59:11.287Z,9.49
2019-03-13T12:04:50.141Z,9.30
2019-03-13T12:10:27.161Z,9.12
2019-03-13T12:16:04.540Z,9.12
2019-03-13T12:21:42.282Z,9.21
2019-03-13T12:27:12.604Z,9.02
2019-03-13T12:33:01.536Z,9.08
2019-03-13T12:38:40.822Z,8.94
2019-03-13T12:44:30.017Z,8.98
2019-03-13T12:50:07.139Z,8.94
2019-03-13T12:55:43.410Z,8.94
2019-03-13T13:01:12.437Z,8.76
2019-03-13T13:06:46.885Z,8.80
2019-03-13T13:12:29.171Z,8.82
2019-03-13T13:18:15.809Z,8.86
2019-03-13T13:23:40.362Z,8.85
2019-03-13T13:29:05.015Z,9.06
2019-03-13T13:34:29.676Z,8.95
2019-03-13T13:39:54.443Z,9.05
2019-03-13T13:45:50.001Z,8.95
2019-03-13T13:51:14.125Z,8.96
2019-03-13T13:56:38.734Z,8.96
2019-03-13T14:02:03.434Z,9.04
2019-03-13T14:07:27.922Z,9.05
2019-03-13T14:12:52.683Z,9.16
2019-03-13T14:18:17.168Z,9.07
2019-03-13T14:23:41.631Z,9.16
2019-03-13T14:29:05.645Z,9.06
2019-03-13T14:34:29.918Z,8.99
2019-03-13T14:39:54.448Z,9.07
2019-03-13T14:45:18.846Z,9.10
2019-03-13T14:50:42.615Z,9.18
2019-03-13T14:56:07.212Z,9.18
2019-03-13T15:01:31.736Z,9.08
2019-03-13T15:06:56.529Z,9.04
2019-03-13T15:12:20.938Z,9.00
2019-03-13T15:17:45.874Z,8.97
2019-03-13T15:23:10.337Z,8.98
2019-03-13T15:28:34.785Z,8.92
2019-03-13T15:33:58.434Z,8.89
2019-03-13T15:39:22.498Z,8.92
2019-03-13T15:44:46.741Z,8.90
2019-03-13T15:50:11.960Z,8.93
2019-03-13T15:55:36.737Z,8.89
2019-03-13T16:01:01.270Z,8.94
2019-03-13T16:06:25.608Z,8.88
2019-03-13T16:11:51.835Z,8.90
2019-03-13T16:17:15.443Z,8.79
2019-03-13T16:22:40.261Z,8.76
2019-03-13T16:28:04.349Z,8.72
2019-03-13T16:33:28.376Z,8.72
2019-03-13T16:38:52.190Z,8.70
2019-03-13T16:44:16.795Z,8.68
2019-03-13T16:49:41.260Z,8.58
2019-03-13T16:55:05.919Z,8.54
2019-03-13T17:00:30.544Z,8.59
2019-03-13T17:05:54.905Z,8.49
2019-03-13T17:11:20.012Z,8.47
2019-03-13T17:16:44.557Z,8.41
2019-03-13T17:22:10.684Z,8.29
2019-03-13T17:27:33.966Z,8.24
2019-03-13T17:33:00.238Z,8.14
2019-03-13T17:38:24.622Z,8.04
2019-03-13T17:43:48.263Z,8.04
2019-03-13T17:49:13.072Z,8.20
2019-03-13T17:54:36.734Z,8.15
2019-03-13T18:00:01.654Z,8.02
2019-03-13T18:05:26.721Z,7.98
2019-03-13T18:10:51.431Z,8.05
2019-03-13T18:16:15.893Z,7.95
2019-03-13T18:21:39.731Z,7.89
2019-03-13T18:27:04.619Z,7.76
2019-03-13T18:32:41.402Z,7.78
2019-03-13T18:37:54.959Z,7.84
2019-03-13T18:43:19.739Z,7.90
2019-03-13T18:48:43.542Z,7.99
2019-03-13T18:54:07.898Z,7.95
2019-03-13T18:59:32.515Z,7.97
2019-03-13T19:04:57.754Z,7.48
2019-03-13T19:10:23.113Z,6.73
2019-03-13T19:15:47.409Z,6.37
2019-03-13T19:21:12.932Z,6.23
2019-03-13T19:26:37.447Z,6.53
2019-03-13T19:32:01.510Z,6.53
2019-03-13T19:37:27.823Z,6.66
2019-03-13T19:42:51.748Z,6.80
2019-03-13T19:48:15.825Z,6.87
2019-03-13T19:53:42.023Z,7.05
2019-03-13T19:59:07.860Z,7.14
2019-03-13T20:04:32.276Z,7.17
2019-03-13T20:09:57.266Z,7.18
2019-03-13T20:15:22.571Z,7.24
2019-03-13T20:20:47.605Z,7.17
2019-03-13T20:26:11.806Z,7.14
2019-03-13T20:31:37.170Z,7.15
2019-03-13T20:37:00.917Z,7.15
2019-03-13T20:42:26.163Z,7.09
2019-03-13T20:47:50.662Z,7.08
2019-03-13T20:53:14.414Z,7.07
2019-03-13T20:58:38.993Z,6.85
2019-03-13T21:04:02.607Z,6.77
2019-03-13T21:09:26.397Z,6.65
2019-03-13T21:14:51.162Z,6.63
2019-03-13T21:20:16.137Z,6.59
2019-03-13T21:25:40.731Z,6.60
2019-03-13T21:31:05.176Z,6.60
2019-03-13T21:36:29.680Z,6.61
2019-03-13T21:41:53.529Z,6.45
2019-03-13T21:47:17.373Z,6.23
2019-03-13T21:52:41.277Z,5.86
2019-03-13T21:58:04.830Z,5.88
2019-03-13T22:03:32.421Z,5.85
2019-03-13T22:08:55.421Z,5.85
2019-03-13T22:14:19.685Z,5.85
2019-03-13T22:19:44.272Z,5.82
2019-03-13T22:25:08.946Z,5.79
2019-03-13T22:30:34.453Z,5.62
2019-03-13T22:35:58.019Z,5.79
2019-03-13T22:41:23.711Z,5.67
2019-03-13T22:46:50.221Z,5.43
2019-03-13T22:52:12.785Z,5.35
2019-03-13T22:57:37.373Z,5.36
2019-03-13T23:03:01.487Z,5.48
2019-03-13T23:08:25.413Z,5.49
2019-03-13T23:13:49.420Z,5.58
2019-03-13T23:19:17.245Z,5.62
2019-03-13T23:24:39.426Z,5.67
2019-03-13T23:30:03.163Z,5.67
2019-03-13T23:35:27.910Z,5.64
2019-03-13T23:40:52.626Z,5.60
2019-03-13T23:46:16.462Z,5.69
2019-03-13T23:51:40.823Z,5.71
2019-03-13T23:57:05.975Z,5.84
